SHT22A EGLL-EGJB
Flight info
| Callsign | SHT22A |
|---|---|
| Flight time | 0h 32m |
| Altitude | 23000 |
| Route | GASGU N866 SAM/N0384F220 N63 LELNA |
| Aircraft | A319/M-SDE3FGHIRWY/LB1 |
Departure
| Time | 2026-04-21 15:14 |
|---|---|
| Airport | London Heathrow Airport (EGLL) |
Arrival
| Time | 2026-04-21 15:47 |
|---|---|
| Airport | Guernsey Airport (EGJB) |
| Time | Latitude | Longitude | Altitude | Speed | Heading |
|---|---|---|---|---|---|
| 2026-04-21 15:06 | 51.46933 | -0.48573 | 86 ft | 0 kts | 360° |
| 2026-04-21 15:09 | 51.46915 | -0.48573 | 89 ft | 4 kts | 360° |
| 2026-04-21 15:09 | 51.46893 | -0.48572 | 86 ft | 4 kts | 8° |
| 2026-04-21 15:09 | 51.46878 | -0.48589 | 88 ft | 4 kts | 83° |
| 2026-04-21 15:10 | 51.46877 | -0.48629 | 89 ft | 3 kts | 90° |
| 2026-04-21 15:10 | 51.46877 | -0.48633 | 86 ft | 0 kts | 90° |
| 2026-04-21 15:12 | 51.46877 | -0.48631 | 86 ft | 2 kts | 90° |
| 2026-04-21 15:12 | 51.46877 | -0.48584 | 88 ft | 7 kts | 90° |
| 2026-04-21 15:12 | 51.46863 | -0.48483 | 87 ft | 12 kts | 141° |
| 2026-04-21 15:12 | 51.46769 | -0.48468 | 86 ft | 15 kts | 179° |
| 2026-04-21 15:13 | 51.46694 | -0.48470 | 86 ft | 17 kts | 180° |
| 2026-04-21 15:13 | 51.46517 | -0.48469 | 87 ft | 19 kts | 178° |
| 2026-04-21 15:13 | 51.46481 | -0.48386 | 87 ft | 5 kts | 90° |
| 2026-04-21 15:13 | 51.46480 | -0.48128 | 88 ft | 52 kts | 90° |
| 2026-04-21 15:14 | 51.46482 | -0.47208 | 87 ft | 111 kts | 90° |
| 2026-04-21 15:14 | 51.46485 | -0.45739 | 365 ft | 136 kts | 88° |
| 2026-04-21 15:14 | 51.46502 | -0.44225 | 1059 ft | 137 kts | 86° |
| 2026-04-21 15:14 | 51.46533 | -0.42631 | 1670 ft | 153 kts | 87° |
| 2026-04-21 15:15 | 51.46225 | -0.40860 | 2078 ft | 183 kts | 116° |
| 2026-04-21 15:15 | 51.45443 | -0.39047 | 2549 ft | 211 kts | 120° |
| 2026-04-21 15:15 | 51.44544 | -0.37004 | 3204 ft | 235 kts | 121° |
| 2026-04-21 15:15 | 51.43533 | -0.34869 | 4229 ft | 246 kts | 130° |
| 2026-04-21 15:16 | 51.42095 | -0.33306 | 5390 ft | 258 kts | 152° |
| 2026-04-21 15:16 | 51.40296 | -0.32755 | 6494 ft | 272 kts | 177° |
| 2026-04-21 15:16 | 51.38422 | -0.33519 | 7522 ft | 287 kts | 204° |
| 2026-04-21 15:16 | 51.36823 | -0.35493 | 8530 ft | 295 kts | 219° |
| 2026-04-21 15:17 | 51.35813 | -0.36962 | 9218 ft | 298 kts | 220° |
| 2026-04-21 15:17 | 51.34271 | -0.39215 | 10213 ft | 302 kts | 219° |
| 2026-04-21 15:17 | 51.32619 | -0.41415 | 10765 ft | 319 kts | 208° |
| 2026-04-21 15:17 | 51.30481 | -0.42487 | 11142 ft | 330 kts | 180° |
| 2026-04-21 15:18 | 51.28162 | -0.42533 | 11882 ft | 338 kts | 180° |
| 2026-04-21 15:18 | 51.25892 | -0.43703 | 12655 ft | 353 kts | 209° |
| 2026-04-21 15:18 | 51.24120 | -0.46460 | 13417 ft | 364 kts | 238° |
| 2026-04-21 15:18 | 51.23277 | -0.50251 | 14272 ft | 367 kts | 263° |
| 2026-04-21 15:19 | 51.23204 | -0.54288 | 15184 ft | 363 kts | 272° |
| 2026-04-21 15:19 | 51.23274 | -0.58322 | 15980 ft | 365 kts | 273° |
| 2026-04-21 15:19 | 51.23286 | -0.62372 | 16801 ft | 366 kts | 270° |
| 2026-04-21 15:19 | 51.23174 | -0.66440 | 17601 ft | 368 kts | 268° |
| 2026-04-21 15:20 | 51.22934 | -0.70507 | 18436 ft | 369 kts | 265° |
| 2026-04-21 15:20 | 51.22608 | -0.74581 | 19177 ft | 370 kts | 264° |
| 2026-04-21 15:20 | 51.22233 | -0.78645 | 19980 ft | 369 kts | 265° |
| 2026-04-21 15:20 | 51.21846 | -0.82680 | 20787 ft | 368 kts | 265° |
| 2026-04-21 15:21 | 51.21466 | -0.86714 | 21527 ft | 368 kts | 266° |
| 2026-04-21 15:21 | 51.21054 | -0.90739 | 22277 ft | 370 kts | 262° |
| 2026-04-21 15:21 | 51.20230 | -0.94670 | 22987 ft | 378 kts | 252° |
| 2026-04-21 15:21 | 51.18921 | -0.98330 | 23216 ft | 383 kts | 240° |
| 2026-04-21 15:22 | 51.17135 | -1.01502 | 23274 ft | 391 kts | 231° |
| 2026-04-21 15:22 | 51.15158 | -1.04517 | 23278 ft | 395 kts | 231° |
| 2026-04-21 15:22 | 51.13174 | -1.07549 | 23272 ft | 396 kts | 231° |
| 2026-04-21 15:22 | 51.11189 | -1.10588 | 23271 ft | 396 kts | 231° |
| 2026-04-21 15:23 | 51.09205 | -1.13623 | 23270 ft | 396 kts | 231° |
| 2026-04-21 15:23 | 51.07217 | -1.16668 | 23270 ft | 397 kts | 231° |
| 2026-04-21 15:23 | 51.05231 | -1.19709 | 23271 ft | 397 kts | 231° |
| 2026-04-21 15:23 | 51.03239 | -1.22753 | 23273 ft | 396 kts | 231° |
| 2026-04-21 15:24 | 51.01252 | -1.25787 | 23273 ft | 397 kts | 231° |
| 2026-04-21 15:24 | 50.99260 | -1.28823 | 23276 ft | 396 kts | 231° |
| 2026-04-21 15:24 | 50.97268 | -1.31856 | 23274 ft | 397 kts | 231° |
| 2026-04-21 15:24 | 50.95125 | -1.34663 | 23269 ft | 405 kts | 221° |
| 2026-04-21 15:25 | 50.92635 | -1.36843 | 23273 ft | 411 kts | 213° |
| 2026-04-21 15:25 | 50.90075 | -1.38869 | 23268 ft | 411 kts | 213° |
| 2026-04-21 15:25 | 50.87511 | -1.40901 | 23264 ft | 411 kts | 213° |
| 2026-04-21 15:25 | 50.84957 | -1.42928 | 23251 ft | 411 kts | 213° |
| 2026-04-21 15:26 | 50.82402 | -1.44957 | 23264 ft | 410 kts | 213° |
| 2026-04-21 15:26 | 50.79858 | -1.46979 | 23269 ft | 410 kts | 213° |
| 2026-04-21 15:26 | 50.77307 | -1.49007 | 23270 ft | 410 kts | 213° |
| 2026-04-21 15:26 | 50.74764 | -1.51032 | 23255 ft | 410 kts | 213° |
| 2026-04-21 15:27 | 50.72218 | -1.53054 | 23257 ft | 409 kts | 213° |
| 2026-04-21 15:27 | 50.69677 | -1.55070 | 23256 ft | 409 kts | 213° |
| 2026-04-21 15:27 | 50.67130 | -1.57087 | 23256 ft | 409 kts | 213° |
| 2026-04-21 15:27 | 50.64586 | -1.59097 | 23251 ft | 409 kts | 213° |
| 2026-04-21 15:28 | 50.62044 | -1.61100 | 23226 ft | 409 kts | 212° |
| 2026-04-21 15:28 | 50.59500 | -1.63106 | 23231 ft | 408 kts | 212° |
| 2026-04-21 15:28 | 50.56963 | -1.65109 | 23233 ft | 408 kts | 213° |
| 2026-04-21 15:28 | 50.54422 | -1.67115 | 23236 ft | 408 kts | 213° |
| 2026-04-21 15:29 | 50.51885 | -1.69115 | 23237 ft | 408 kts | 212° |
| 2026-04-21 15:29 | 50.49338 | -1.71115 | 23242 ft | 409 kts | 212° |
| 2026-04-21 15:29 | 50.46797 | -1.73105 | 23246 ft | 409 kts | 212° |
| 2026-04-21 15:29 | 50.44251 | -1.75091 | 23242 ft | 409 kts | 212° |
| 2026-04-21 15:30 | 50.41706 | -1.77070 | 23241 ft | 408 kts | 212° |
| 2026-04-21 15:30 | 50.39159 | -1.79052 | 23224 ft | 408 kts | 212° |
| 2026-04-21 15:30 | 50.36617 | -1.81032 | 23227 ft | 408 kts | 212° |
| 2026-04-21 15:30 | 50.34076 | -1.83010 | 23227 ft | 408 kts | 212° |
| 2026-04-21 15:31 | 50.31538 | -1.84986 | 23217 ft | 408 kts | 212° |
| 2026-04-21 15:31 | 50.28997 | -1.86961 | 23080 ft | 409 kts | 212° |
| 2026-04-21 15:31 | 50.26458 | -1.88928 | 22781 ft | 406 kts | 212° |
| 2026-04-21 15:31 | 50.23932 | -1.90881 | 22508 ft | 405 kts | 212° |
| 2026-04-21 15:32 | 50.21412 | -1.92831 | 22236 ft | 404 kts | 211° |
| 2026-04-21 15:32 | 50.18899 | -1.94776 | 21975 ft | 402 kts | 211° |
| 2026-04-21 15:32 | 50.16387 | -1.96713 | 21698 ft | 401 kts | 211° |
| 2026-04-21 15:32 | 50.13886 | -1.98637 | 21445 ft | 400 kts | 211° |
| 2026-04-21 15:33 | 50.11397 | -2.00553 | 21182 ft | 399 kts | 211° |
| 2026-04-21 15:33 | 50.08976 | -2.02607 | 20930 ft | 392 kts | 220° |
| 2026-04-21 15:33 | 50.06940 | -2.05356 | 20673 ft | 386 kts | 228° |
| 2026-04-21 15:33 | 50.04992 | -2.08231 | 20425 ft | 386 kts | 229° |
| 2026-04-21 15:34 | 50.03043 | -2.11092 | 20173 ft | 386 kts | 227° |
| 2026-04-21 15:34 | 50.01020 | -2.13837 | 19929 ft | 385 kts | 226° |
| 2026-04-21 15:34 | 49.98955 | -2.16627 | 19684 ft | 402 kts | 226° |
| 2026-04-21 15:34 | 49.96836 | -2.19503 | 19180 ft | 407 kts | 226° |
| 2026-04-21 15:35 | 49.94702 | -2.22391 | 18476 ft | 406 kts | 226° |
| 2026-04-21 15:35 | 49.92593 | -2.25284 | 17794 ft | 402 kts | 226° |
| 2026-04-21 15:35 | 49.90521 | -2.28128 | 17237 ft | 394 kts | 226° |
| 2026-04-21 15:35 | 49.88472 | -2.30918 | 16611 ft | 389 kts | 226° |
| 2026-04-21 15:36 | 49.86461 | -2.33697 | 16017 ft | 385 kts | 225° |
| 2026-04-21 15:36 | 49.84484 | -2.36474 | 15516 ft | 383 kts | 225° |
| 2026-04-21 15:36 | 49.82517 | -2.39199 | 15030 ft | 381 kts | 224° |
| 2026-04-21 15:36 | 49.80565 | -2.41960 | 14539 ft | 379 kts | 226° |
| 2026-04-21 15:37 | 49.78644 | -2.44748 | 14060 ft | 378 kts | 225° |
| 2026-04-21 15:37 | 49.76735 | -2.47531 | 13536 ft | 377 kts | 225° |
| 2026-04-21 15:37 | 49.74839 | -2.50312 | 12996 ft | 375 kts | 226° |
| 2026-04-21 15:37 | 49.72978 | -2.53106 | 12477 ft | 372 kts | 225° |
| 2026-04-21 15:38 | 49.71132 | -2.55900 | 11959 ft | 370 kts | 225° |
| 2026-04-21 15:38 | 49.69305 | -2.58678 | 11459 ft | 367 kts | 225° |
| 2026-04-21 15:38 | 49.67502 | -2.61453 | 10953 ft | 365 kts | 225° |
| 2026-04-21 15:38 | 49.65720 | -2.64229 | 10453 ft | 363 kts | 225° |
| 2026-04-21 15:39 | 49.64030 | -2.67018 | 9817 ft | 348 kts | 231° |
| 2026-04-21 15:39 | 49.62635 | -2.70024 | 8854 ft | 343 kts | 234° |
| 2026-04-21 15:39 | 49.61314 | -2.73070 | 7905 ft | 339 kts | 236° |
| 2026-04-21 15:39 | 49.60030 | -2.76103 | 6977 ft | 337 kts | 234° |
| 2026-04-21 15:40 | 49.58776 | -2.79155 | 6056 ft | 337 kts | 236° |
| 2026-04-21 15:40 | 49.57547 | -2.82211 | 5186 ft | 333 kts | 235° |
| 2026-04-21 15:40 | 49.56334 | -2.85151 | 4644 ft | 317 kts | 228° |
| 2026-04-21 15:40 | 49.54794 | -2.87404 | 4111 ft | 298 kts | 208° |
| 2026-04-21 15:41 | 49.52975 | -2.88682 | 3744 ft | 279 kts | 187° |
| 2026-04-21 15:41 | 49.51119 | -2.89028 | 3513 ft | 261 kts | 171° |
| 2026-04-21 15:41 | 49.49384 | -2.88568 | 3250 ft | 247 kts | 154° |
| 2026-04-21 15:41 | 49.47889 | -2.87462 | 3059 ft | 231 kts | 140° |
| 2026-04-21 15:42 | 49.46589 | -2.86123 | 3005 ft | 218 kts | 139° |
| 2026-04-21 15:42 | 49.45377 | -2.84888 | 3008 ft | 199 kts | 139° |
| 2026-04-21 15:42 | 49.44281 | -2.83758 | 3004 ft | 179 kts | 135° |
| 2026-04-21 15:42 | 49.43485 | -2.82439 | 3036 ft | 164 kts | 118° |
| 2026-04-21 15:43 | 49.43042 | -2.80915 | 2862 ft | 149 kts | 102° |
| 2026-04-21 15:43 | 49.42943 | -2.79459 | 2707 ft | 127 kts | 88° |
| 2026-04-21 15:43 | 49.42982 | -2.78147 | 2537 ft | 119 kts | 87° |
| 2026-04-21 15:43 | 49.43018 | -2.76891 | 2373 ft | 117 kts | 86° |
| 2026-04-21 15:44 | 49.43054 | -2.75662 | 2214 ft | 115 kts | 85° |
| 2026-04-21 15:44 | 49.43090 | -2.74424 | 2057 ft | 116 kts | 85° |
| 2026-04-21 15:44 | 49.43125 | -2.73190 | 1896 ft | 115 kts | 85° |
| 2026-04-21 15:44 | 49.43161 | -2.71965 | 1736 ft | 115 kts | 85° |
| 2026-04-21 15:45 | 49.43196 | -2.70745 | 1579 ft | 114 kts | 84° |
| 2026-04-21 15:45 | 49.43231 | -2.69534 | 1422 ft | 113 kts | 84° |
| 2026-04-21 15:45 | 49.43266 | -2.68322 | 1256 ft | 115 kts | 84° |
| 2026-04-21 15:45 | 49.43301 | -2.67095 | 1091 ft | 115 kts | 84° |
| 2026-04-21 15:46 | 49.43335 | -2.65871 | 930 ft | 115 kts | 84° |
| 2026-04-21 15:46 | 49.43370 | -2.64626 | 760 ft | 115 kts | 84° |
| 2026-04-21 15:46 | 49.43405 | -2.63373 | 601 ft | 121 kts | 86° |
| 2026-04-21 15:46 | 49.43442 | -2.62092 | 429 ft | 119 kts | 81° |
| 2026-04-21 15:47 | 49.43480 | -2.60867 | 311 ft | 105 kts | 87° |
| 2026-04-21 15:47 | 49.43498 | -2.60150 | 314 ft | 32 kts | 88° |
| 2026-04-21 15:47 | 49.43505 | -2.59917 | 322 ft | 12 kts | 87° |
| 2026-04-21 15:47 | 49.43437 | -2.59861 | 324 ft | 12 kts | 173° |
| 2026-04-21 15:48 | 49.43376 | -2.59854 | 325 ft | 10 kts | 176° |
| 2026-04-21 15:48 | 49.43346 | -2.59787 | 328 ft | 8 kts | 88° |
| 2026-04-21 15:48 | 49.43346 | -2.59696 | 329 ft | 8 kts | 141° |
| 2026-04-21 15:48 | 49.43278 | -2.59686 | 328 ft | 10 kts | 177° |
| 2026-04-21 15:49 | 49.43264 | -2.59685 | 328 ft | 0 kts | 178° |